Time;durP1;ratioP1;P1;durP2;ratioP2;P2;SDS_P1;SDS_P2;PMS_P1;PMS_P2;Temp;Humidity;BMP_temperature;BMP_pressure;BME280_temperature;BME280_humidity;BME280_pressure;Samples;Min_cycle;Max_cycle;Signal;HPM_P1;HPM_P2
2023/01/10 00:00:34;;;;;;;15.98;6.30;;;7.80;99.90;;;;;;5072922;28;20024;-77
2023/01/10 00:03:06;;;;;;;24.08;6.07;;;7.80;99.90;;;;;;5075055;28;20028;-78
2023/01/10 00:05:37;;;;;;;22.27;7.47;;;7.70;99.90;;;;;;5075145;28;20035;-78
2023/01/10 00:08:04;;;;;;;20.98;6.30;;;7.70;99.90;;;;;;5077590;28;20492;-78
2023/01/10 00:10:32;;;;;;;23.52;6.65;;;7.70;99.90;;;;;;5071042;28;20020;-78
2023/01/10 00:15:42;;;;;;;20.98;5.88;;;7.60;99.90;;;;;;5088015;28;20086;-78
2023/01/10 00:18:08;;;;;;;23.23;5.80;;;7.60;99.90;;;;;;5077813;28;20020;-77
2023/01/10 00:20:44;;;;;;;31.70;6.25;;;7.60;99.90;;;;;;5070852;28;20123;-78
2023/01/10 00:23:10;;;;;;;23.77;6.18;;;7.60;99.90;;;;;;5092894;28;20025;-79
2023/01/10 00:25:36;;;;;;;20.25;6.43;;;7.60;99.90;;;;;;5073947;28;20028;-78
2023/01/10 00:28:21;;;;;;;25.27;5.95;;;7.60;99.90;;;;;;5092793;28;20393;-79
2023/01/10 00:31:10;;;;;;;22.73;6.50;;;7.50;99.90;;;;;;5075009;28;20020;-79
2023/01/10 00:33:39;;;;;;;27.95;5.55;;;7.50;99.90;;;;;;5092149;28;20027;-77
2023/01/10 00:36:06;;;;;;;25.20;7.05;;;7.50;99.90;;;;;;5075944;28;20028;-78
2023/01/10 00:38:34;;;;;;;25.02;5.88;;;7.60;99.90;;;;;;5074234;28;20102;-78
2023/01/10 00:41:01;;;;;;;19.10;6.43;;;7.60;99.90;;;;;;5077253;28;20031;-79
2023/01/10 00:46:35;;;;;;;24.17;6.60;;;7.70;99.90;;;;;;5013930;28;20064;-79
2023/01/10 00:49:04;;;;;;;17.05;6.20;;;7.70;99.90;;;;;;5073796;28;20040;-78
2023/01/10 00:51:32;;;;;;;32.40;6.15;;;7.80;99.90;;;;;;5097520;28;20564;-78
2023/01/10 00:53:58;;;;;;;21.10;6.28;;;7.80;99.90;;;;;;5068302;28;20040;-78
2023/01/10 00:56:26;;;;;;;25.90;6.43;;;7.80;99.90;;;;;;5079767;28;20395;-78
2023/01/10 00:58:54;;;;;;;27.15;6.13;;;7.80;99.90;;;;;;5070106;28;20027;-78
2023/01/10 01:01:20;;;;;;;27.85;7.43;;;7.90;99.90;;;;;;5078579;28;20035;-79
2023/01/10 01:03:46;;;;;;;17.60;6.00;;;7.80;99.90;;;;;;5070288;28;20024;-77
2023/01/10 01:06:12;;;;;;;17.27;5.45;;;7.90;99.90;;;;;;5086173;28;20028;-79
2023/01/10 01:08:38;;;;;;;22.35;6.38;;;7.90;99.90;;;;;;5086893;28;20021;-78
2023/01/10 01:11:11;;;;;;;20.23;6.47;;;7.90;99.90;;;;;;5079879;28;20028;-79
2023/01/10 01:13:40;;;;;;;21.85;6.50;;;8.00;99.90;;;;;;5090225;28;20048;-78
2023/01/10 01:16:06;;;;;;;31.30;5.43;;;8.00;99.90;;;;;;5085957;28;20028;-77
2023/01/10 01:18:32;;;;;;;27.60;8.23;;;8.00;99.90;;;;;;5091120;28;20028;-77
2023/01/10 01:21:02;;;;;;;32.72;7.28;;;7.90;99.90;;;;;;5089775;28;20031;-77
2023/01/10 01:23:29;;;;;;;25.40;7.18;;;7.90;99.90;;;;;;5091385;28;20024;-77
2023/01/10 01:25:55;;;;;;;23.67;7.50;;;7.80;99.90;;;;;;5076437;28;20112;-78
2023/01/10 01:28:22;;;;;;;22.38;6.25;;;7.80;99.90;;;;;;5076820;28;20029;-78
2023/01/10 01:30:48;;;;;;;29.38;7.85;;;7.80;99.90;;;;;;5075292;28;20441;-77
2023/01/10 01:33:15;;;;;;;24.85;6.18;;;7.80;99.90;;;;;;5090987;28;20388;-78
2023/01/10 01:35:43;;;;;;;19.83;6.28;;;7.80;99.90;;;;;;5092747;28;20032;-78
2023/01/10 01:38:09;;;;;;;21.17;6.70;;;7.70;99.90;;;;;;5073469;28;20032;-78
2023/01/10 01:40:36;;;;;;;29.10;6.95;;;7.70;99.90;;;;;;5070783;28;20541;-77
2023/01/10 01:43:02;;;;;;;32.60;7.68;;;7.70;99.90;;;;;;5093074;28;20024;-78
2023/01/10 01:45:28;;;;;;;26.27;8.43;;;7.80;99.90;;;;;;5071403;28;20494;-77
2023/01/10 01:48:20;;;;;;;31.90;6.72;;;7.80;99.90;;;;;;5094132;28;20111;-77
2023/01/10 01:51:06;;;;;;;26.73;7.25;;;7.80;99.90;;;;;;5087421;28;20044;-77
2023/01/10 01:54:00;;;;;;;34.60;7.93;;;7.80;99.90;;;;;;5069103;28;20024;-78
2023/01/10 01:56:44;;;;;;;20.00;6.32;;;7.90;99.90;;;;;;5079570;28;20027;-77
2023/01/10 01:59:13;;;;;;;29.75;8.15;;;7.90;99.90;;;;;;5080337;28;20032;-76
2023/01/10 02:01:41;;;;;;;21.58;6.68;;;7.80;99.90;;;;;;5076932;28;20074;-76
2023/01/10 02:04:30;;;;;;;23.25;6.25;;;7.80;99.90;;;;;;5068047;28;20060;-77
2023/01/10 02:06:58;;;;;;;16.95;5.70;;;7.70;99.90;;;;;;5071757;28;20027;-77
2023/01/10 02:09:39;;;;;;;34.20;7.03;;;7.60;99.90;;;;;;5065029;28;20102;-76
2023/01/10 02:12:06;;;;;;;27.10;7.18;;;7.60;99.90;;;;;;5078426;28;20077;-76
2023/01/10 02:14:33;;;;;;;21.63;6.03;;;7.50;99.90;;;;;;5086343;28;20483;-77
2023/01/10 02:16:59;;;;;;;31.10;7.50;;;7.50;99.90;;;;;;5096631;28;20020;-77
2023/01/10 02:19:51;;;;;;;27.42;7.40;;;7.50;99.90;;;;;;5069817;28;20070;-77
2023/01/10 02:22:48;;;;;;;30.58;8.43;;;7.50;99.90;;;;;;5074899;28;20074;-77
2023/01/10 02:25:46;;;;;;;26.88;5.90;;;7.50;99.90;;;;;;5087381;28;20032;-77
2023/01/10 02:28:41;;;;;;;19.48;5.70;;;7.50;99.90;;;;;;5084580;28;20362;-76
2023/01/10 02:31:44;;;;;;;22.40;7.07;;;7.50;99.90;;;;;;5075817;28;20032;-76
2023/01/10 02:34:20;;;;;;;22.77;6.30;;;7.50;99.90;;;;;;5076037;28;20158;-77
2023/01/10 02:37:12;;;;;;;27.92;6.55;;;7.50;99.90;;;;;;5071283;28;20046;-77
2023/01/10 02:40:04;;;;;;;35.47;8.40;;;7.50;99.90;;;;;;5083801;28;20394;-77
2023/01/10 02:42:51;;;;;;;21.38;6.82;;;7.50;99.90;;;;;;5076996;28;20021;-77
2023/01/10 02:45:25;;;;;;;25.45;6.43;;;7.60;99.90;;;;;;5074521;28;20048;-77
2023/01/10 02:47:51;;;;;;;23.27;6.38;;;7.60;99.90;;;;;;5092846;28;20120;-77
2023/01/10 02:50:29;;;;;;;18.55;6.47;;;7.60;99.90;;;;;;5093946;28;20055;-77
2023/01/10 02:53:02;;;;;;;35.08;8.52;;;7.50;99.90;;;;;;5073032;28;20070;-78
2023/01/10 02:55:57;;;;;;;41.30;8.20;;;7.50;99.90;;;;;;5091395;28;20016;-77
2023/01/10 02:58:48;;;;;;;35.13;8.02;;;7.50;99.90;;;;;;5088181;28;20036;-77
2023/01/10 03:01:35;;;;;;;16.83;5.97;;;7.40;99.90;;;;;;5073018;28;20036;-77
2023/01/10 03:04:10;;;;;;;29.92;6.93;;;7.40;99.90;;;;;;5073092;28;20025;-77
2023/01/10 03:06:52;;;;;;;36.72;6.68;;;7.30;99.90;;;;;;5098846;28;20024;-77
2023/01/10 03:09:34;;;;;;;26.50;6.97;;;7.30;99.90;;;;;;5072677;28;20028;-77
2023/01/10 03:12:16;;;;;;;24.48;6.90;;;7.30;99.90;;;;;;5081987;28;20020;-77
2023/01/10 03:14:45;;;;;;;21.33;7.53;;;7.30;99.90;;;;;;5084925;28;20039;-77
2023/01/10 03:17:12;;;;;;;27.38;6.80;;;7.30;99.90;;;;;;5095607;28;20024;-77
2023/01/10 03:19:46;;;;;;;33.20;7.00;;;7.30;99.90;;;;;;5075270;28;20028;-77
2023/01/10 03:22:13;;;;;;;27.88;6.97;;;7.40;99.90;;;;;;5099105;28;20031;-77
2023/01/10 03:24:43;;;;;;;26.13;8.02;;;7.40;99.90;;;;;;5072979;28;20100;-77
2023/01/10 03:27:38;;;;;;;26.73;6.33;;;7.40;99.90;;;;;;5079396;28;20154;-77
2023/01/10 03:30:26;;;;;;;23.02;6.05;;;7.50;99.90;;;;;;5072983;28;20029;-78
2023/01/10 03:32:53;;;;;;;25.65;5.78;;;7.50;99.90;;;;;;5078424;28;20046;-77
2023/01/10 03:35:22;;;;;;;24.38;7.15;;;7.50;99.90;;;;;;5076190;28;20483;-77
2023/01/10 03:38:05;;;;;;;22.13;6.60;;;7.50;99.90;;;;;;5077753;28;20055;-78
2023/01/10 03:40:43;;;;;;;21.05;6.63;;;7.50;99.90;;;;;;5093446;28;20020;-78
2023/01/10 03:46:48;;;;;;;18.58;6.32;;;7.50;99.90;;;;;;5094269;28;20508;-77
2023/01/10 03:49:16;;;;;;;20.10;8.15;;;7.50;99.90;;;;;;5093844;28;20039;-77
2023/01/10 03:51:43;;;;;;;20.13;5.72;;;7.50;99.90;;;;;;5099851;28;20020;-77
2023/01/10 03:54:10;;;;;;;24.20;6.13;;;7.50;99.90;;;;;;5073637;28;20090;-77
2023/01/10 03:56:48;;;;;;;19.55;6.95;;;7.60;99.90;;;;;;5089210;28;20024;-77
2023/01/10 03:59:18;;;;;;;26.70;6.30;;;7.50;99.90;;;;;;5075408;28;20027;-78
2023/01/10 04:01:43;;;;;;;26.58;6.70;;;7.50;99.90;;;;;;5073318;28;20036;-77
2023/01/10 04:04:10;;;;;;;20.35;7.32;;;7.50;99.90;;;;;;5077960;28;20059;-77
2023/01/10 04:06:36;;;;;;;26.35;7.10;;;7.30;99.90;;;;;;5073147;28;20387;-77
2023/01/10 04:09:02;;;;;;;18.15;6.82;;;7.20;99.90;;;;;;5080413;28;20059;-77
2023/01/10 04:11:28;;;;;;;27.00;6.30;;;7.10;99.90;;;;;;5073502;28;20089;-77
2023/01/10 04:13:54;;;;;;;22.92;6.00;;;7.00;99.90;;;;;;5079820;28;20935;-77
2023/01/10 04:16:20;;;;;;;30.58;7.10;;;7.00;99.90;;;;;;5074706;28;20399;-77
2023/01/10 04:18:46;;;;;;;26.15;6.88;;;6.90;99.90;;;;;;5080171;28;20024;-77
2023/01/10 04:21:12;;;;;;;22.40;6.57;;;6.80;99.90;;;;;;5075911;28;20028;-77
2023/01/10 04:23:38;;;;;;;17.08;6.30;;;6.70;99.90;;;;;;5078101;28;20025;-77
2023/01/10 04:26:04;;;;;;;30.42;6.63;;;6.70;99.90;;;;;;5094909;28;20387;-77
2023/01/10 04:28:30;;;;;;;20.30;6.47;;;6.70;99.90;;;;;;5091569;28;20017;-77
2023/01/10 04:31:03;;;;;;;24.25;6.45;;;6.70;99.90;;;;;;5076840;28;20024;-77
2023/01/10 04:33:29;;;;;;;20.33;6.78;;;6.70;99.90;;;;;;5091570;28;20083;-77
2023/01/10 04:35:55;;;;;;;27.50;7.57;;;6.60;99.90;;;;;;5077992;28;20510;-77
2023/01/10 04:38:21;;;;;;;15.30;6.28;;;6.50;99.90;;;;;;5077328;28;20035;-77
2023/01/10 04:40:56;;;;;;;26.02;6.72;;;6.40;99.90;;;;;;5091060;28;20104;-77
2023/01/10 04:43:24;;;;;;;24.70;6.85;;;6.30;99.90;;;;;;5093644;28;20031;-77
2023/01/10 04:45:50;;;;;;;21.55;5.13;;;6.40;99.90;;;;;;5092348;28;20024;-78
2023/01/10 04:48:17;;;;;;;15.60;5.82;;;6.50;99.90;;;;;;5093382;28;20020;-77
2023/01/10 04:50:48;;;;;;;20.52;5.53;;;6.50;99.90;;;;;;5069916;28;20082;-77
2023/01/10 04:53:14;;;;;;;20.65;6.13;;;6.60;99.90;;;;;;5070717;28;20116;-77
2023/01/10 04:55:40;;;;;;;19.65;5.40;;;6.70;99.90;;;;;;5060627;28;20060;-77
2023/01/10 04:58:06;;;;;;;20.52;6.18;;;6.70;99.90;;;;;;5071903;28;20025;-77
2023/01/10 05:00:32;;;;;;;23.80;6.00;;;6.70;99.90;;;;;;5062468;28;20036;-77
2023/01/10 05:02:58;;;;;;;25.60;7.15;;;6.60;99.90;;;;;;5085172;28;20123;-77
2023/01/10 05:05:24;;;;;;;19.08;5.70;;;6.70;99.90;;;;;;5067453;28;20049;-77
2023/01/10 05:07:50;;;;;;;18.00;5.68;;;6.70;99.90;;;;;;5074366;28;20024;-77
2023/01/10 05:10:16;;;;;;;12.68;5.45;;;6.70;99.90;;;;;;5066399;28;20021;-77
2023/01/10 05:12:42;;;;;;;20.27;6.47;;;6.70;99.90;;;;;;5074866;28;20036;-77
2023/01/10 05:15:09;;;;;;;20.65;5.57;;;6.70;99.90;;;;;;5066691;28;20033;-77
2023/01/10 05:17:35;;;;;;;12.85;5.60;;;6.60;99.90;;;;;;5075487;28;20016;-77
2023/01/10 05:20:00;;;;;;;25.95;5.82;;;6.60;99.90;;;;;;5066781;28;20044;-77
2023/01/10 05:22:26;;;;;;;22.77;6.30;;;6.70;99.90;;;;;;5076021;28;20020;-77
2023/01/10 05:24:52;;;;;;;11.07;4.30;;;6.70;99.90;;;;;;5066183;28;20040;-77
2023/01/10 05:27:18;;;;;;;19.95;6.45;;;6.80;99.90;;;;;;5090453;28;20078;-77
2023/01/10 05:29:44;;;;;;;23.02;5.63;;;6.80;99.90;;;;;;5068047;28;20393;-78
2023/01/10 05:32:10;;;;;;;19.23;6.13;;;6.90;99.90;;;;;;5076383;28;20094;-77
2023/01/10 05:34:36;;;;;;;24.38;6.47;;;6.90;99.90;;;;;;5070224;28;20032;-77
2023/01/10 05:37:02;;;;;;;19.00;5.93;;;6.90;99.90;;;;;;5075875;28;20031;-77
2023/01/10 05:39:28;;;;;;;22.73;5.75;;;7.00;99.90;;;;;;5063329;28;20489;-78
2023/01/10 05:41:54;;;;;;;13.27;5.22;;;6.90;99.90;;;;;;5076280;28;20050;-77
2023/01/10 05:44:20;;;;;;;24.00;5.18;;;6.90;99.90;;;;;;5081057;28;20030;-77
2023/01/10 05:46:45;;;;;;;18.45;5.93;;;7.00;99.90;;;;;;5077322;28;20023;-77
2023/01/10 05:49:14;;;;;;;19.92;5.70;;;7.00;99.90;;;;;;5063956;28;20032;-77
2023/01/10 05:51:41;;;;;;;26.27;6.20;;;7.00;99.90;;;;;;5065678;28;20013;-76
2023/01/10 05:54:07;;;;;;;16.17;5.03;;;6.90;99.90;;;;;;5078976;28;20055;-77
2023/01/10 05:56:33;;;;;;;19.00;4.97;;;6.90;99.90;;;;;;5080885;28;20021;-77
2023/01/10 05:58:59;;;;;;;22.35;6.05;;;6.90;99.90;;;;;;5075225;28;20040;-77
2023/01/10 06:01:25;;;;;;;13.65;5.53;;;6.90;99.90;;;;;;5066300;28;20082;-78
2023/01/10 06:03:51;;;;;;;13.07;4.88;;;7.00;99.90;;;;;;5083427;28;20089;-77
2023/01/10 06:06:17;;;;;;;13.88;4.32;;;7.00;99.90;;;;;;5082512;28;20496;-77
2023/01/10 06:08:43;;;;;;;22.20;5.28;;;7.10;99.90;;;;;;5070496;28;20051;-77
2023/01/10 06:11:09;;;;;;;11.85;4.68;;;7.10;99.90;;;;;;5068473;28;20016;-78
2023/01/10 06:13:35;;;;;;;15.05;5.82;;;7.20;99.90;;;;;;5070348;28;20071;-77
2023/01/10 06:16:00;;;;;;;15.75;5.03;;;7.20;99.90;;;;;;5085045;28;20170;-77
2023/01/10 06:18:26;;;;;;;17.13;5.60;;;7.20;99.90;;;;;;5070384;28;20028;-77
2023/01/10 06:20:52;;;;;;;16.92;5.45;;;7.30;99.90;;;;;;5086241;28;20029;-77
2023/01/10 06:23:18;;;;;;;19.75;5.65;;;7.20;99.90;;;;;;5073599;28;20057;-77
2023/01/10 06:25:44;;;;;;;16.92;4.97;;;7.30;99.90;;;;;;5087334;28;20036;-77
2023/01/10 06:28:12;;;;;;;15.77;4.75;;;7.20;99.90;;;;;;5070583;28;20029;-77
2023/01/10 06:30:40;;;;;;;16.33;4.85;;;7.20;99.90;;;;;;5088774;28;20498;-77
2023/01/10 06:33:08;;;;;;;17.20;5.13;;;7.20;99.90;;;;;;5071917;28;20401;-77
2023/01/10 06:35:34;;;;;;;13.07;4.75;;;7.10;99.90;;;;;;5066871;28;20043;-78
2023/01/10 06:38:00;;;;;;;19.52;5.80;;;7.00;99.90;;;;;;5072802;28;20033;-77
2023/01/10 06:40:27;;;;;;;9.05;5.20;;;6.90;99.90;;;;;;5082231;28;20108;-77
2023/01/10 06:42:53;;;;;;;15.82;6.03;;;6.80;99.90;;;;;;5088457;28;20095;-77
2023/01/10 06:45:19;;;;;;;12.80;4.40;;;6.80;99.90;;;;;;5073636;28;20025;-77
2023/01/10 06:47:45;;;;;;;15.32;4.65;;;6.90;99.90;;;;;;5070163;28;20069;-77
2023/01/10 06:50:12;;;;;;;21.13;5.80;;;7.00;99.90;;;;;;5081200;28;20044;-77
2023/01/10 06:52:39;;;;;;;12.63;4.97;;;7.10;99.90;;;;;;5076296;28;20056;-77
2023/01/10 06:55:05;;;;;;;9.23;4.72;;;7.10;99.90;;;;;;5079129;28;20048;-77
2023/01/10 06:57:34;;;;;;;12.80;5.82;;;7.20;99.90;;;;;;5089469;28;20078;-77
2023/01/10 07:00:02;;;;;;;20.88;6.38;;;7.10;99.90;;;;;;5085628;28;20012;-77
2023/01/10 07:02:28;;;;;;;18.33;5.32;;;7.10;99.90;;;;;;5090853;28;20021;-77
2023/01/10 07:04:54;;;;;;;9.25;4.97;;;7.10;99.90;;;;;;5067928;28;20032;-77
2023/01/10 07:07:20;;;;;;;16.48;5.40;;;7.00;99.90;;;;;;5074002;28;20081;-77
2023/01/10 07:09:46;;;;;;;13.68;5.20;;;7.00;99.90;;;;;;5087352;28;20044;-77
2023/01/10 07:12:12;;;;;;;8.43;4.28;;;7.00;99.90;;;;;;5075246;28;20494;-77
2023/01/10 07:14:38;;;;;;;15.20;4.63;;;6.90;99.90;;;;;;5069353;28;20021;-77
2023/01/10 07:17:03;;;;;;;15.38;5.68;;;6.90;99.90;;;;;;5093477;28;20031;-77
2023/01/10 07:19:29;;;;;;;15.65;5.13;;;7.00;99.90;;;;;;5087496;28;20021;-77
2023/01/10 07:21:55;;;;;;;11.18;4.45;;;7.00;99.90;;;;;;5094322;28;20034;-77
2023/01/10 07:24:21;;;;;;;11.38;4.85;;;7.00;99.90;;;;;;5088500;28;20032;-77
2023/01/10 07:26:47;;;;;;;11.32;4.82;;;6.90;99.90;;;;;;5076278;28;20544;-77
2023/01/10 07:29:13;;;;;;;16.48;4.70;;;6.90;99.90;;;;;;5081679;28;20017;-77
2023/01/10 07:31:39;;;;;;;16.60;5.25;;;6.80;99.90;;;;;;5091955;28;20027;-77
2023/01/10 07:34:04;;;;;;;9.93;4.60;;;6.80;99.90;;;;;;5088913;28;20563;-77
2023/01/10 07:36:30;;;;;;;9.32;4.53;;;6.80;99.90;;;;;;5093173;28;20028;-78
2023/01/10 07:38:56;;;;;;;9.68;4.68;;;6.70;99.90;;;;;;5073652;28;20028;-77
2023/01/10 07:41:22;;;;;;;10.68;4.28;;;6.70;99.90;;;;;;5094197;28;20024;-77
2023/01/10 07:43:48;;;;;;;14.82;4.95;;;6.70;99.90;;;;;;5087551;28;20021;-77
2023/01/10 07:46:14;;;;;;;11.38;4.55;;;6.70;99.90;;;;;;5091816;28;20035;-78
2023/01/10 07:48:40;;;;;;;12.80;5.35;;;6.70;99.90;;;;;;5086613;28;20048;-79
2023/01/10 07:51:06;;;;;;;11.70;4.50;;;6.70;99.90;;;;;;5068560;28;20043;-78
2023/01/10 07:53:32;;;;;;;14.65;4.78;;;6.80;99.90;;;;;;5089201;28;20027;-77
2023/01/10 07:56:00;;;;;;;13.48;5.15;;;6.90;99.90;;;;;;5085596;28;20084;-77
2023/01/10 07:58:26;;;;;;;12.25;4.53;;;7.00;99.90;;;;;;5091028;28;20029;-77
2023/01/10 08:00:57;;;;;;;10.27;4.32;;;7.00;99.90;;;;;;5087953;28;20074;-77
2023/01/10 08:03:23;;;;;;;14.40;5.22;;;7.10;99.90;;;;;;5075789;28;20024;-77
2023/01/10 08:05:49;;;;;;;13.60;5.65;;;7.20;99.90;;;;;;5093862;28;20062;-78
2023/01/10 08:08:16;;;;;;;17.38;7.18;;;7.30;99.90;;;;;;5091290;28;20488;-77
2023/01/10 08:10:42;;;;;;;15.75;4.57;;;7.40;99.90;;;;;;5096388;28;20025;-77
2023/01/10 08:13:08;;;;;;;16.15;5.38;;;7.50;99.90;;;;;;5093913;28;20028;-77
2023/01/10 08:15:34;;;;;;;18.25;5.43;;;7.50;99.90;;;;;;5093628;28;20099;-76
2023/01/10 08:18:01;;;;;;;12.35;5.68;;;7.60;99.90;;;;;;5079301;28;20109;-78
2023/01/10 08:20:28;;;;;;;12.77;5.30;;;7.60;99.90;;;;;;5096956;28;20127;-78
2023/01/10 08:22:57;;;;;;;10.32;6.15;;;7.70;99.90;;;;;;5075609;28;20498;-78
2023/01/10 08:25:23;;;;;;;16.10;6.03;;;7.70;99.90;;;;;;5095321;28;20035;-78
2023/01/10 08:27:49;;;;;;;18.23;5.43;;;7.70;99.90;;;;;;5092753;28;20012;-78
2023/01/10 08:30:15;;;;;;;12.60;5.05;;;7.70;99.90;;;;;;5096919;28;20027;-78
2023/01/10 08:32:41;;;;;;;19.10;5.72;;;7.70;99.90;;;;;;5093803;28;20027;-78
2023/01/10 08:35:07;;;;;;;11.10;5.55;;;7.70;99.90;;;;;;5095555;28;20075;-78
2023/01/10 08:37:34;;;;;;;14.57;6.93;;;7.70;99.90;;;;;;5089389;28;20044;-78
2023/01/10 08:40:00;;;;;;;13.60;6.22;;;7.80;99.90;;;;;;5075384;28;20510;-78
2023/01/10 08:42:26;;;;;;;12.15;6.40;;;7.90;99.90;;;;;;5096605;28;20437;-78
2023/01/10 08:44:53;;;;;;;17.55;5.75;;;8.10;99.90;;;;;;5096008;28;20020;-78
2023/01/10 08:47:19;;;;;;;23.25;7.45;;;8.20;99.90;;;;;;5096372;28;20020;-78
2023/01/10 08:49:46;;;;;;;13.13;5.68;;;8.30;99.90;;;;;;5070835;28;20169;-78
2023/01/10 08:52:12;;;;;;;16.58;5.97;;;8.40;99.90;;;;;;5086312;28;20048;-78
2023/01/10 08:54:38;;;;;;;13.75;5.97;;;8.50;99.90;;;;;;5086626;28;20032;-77
2023/01/10 08:57:04;;;;;;;17.77;5.72;;;8.50;99.90;;;;;;5084165;28;20024;-78
2023/01/10 08:59:29;;;;;;;12.20;4.82;;;8.60;99.90;;;;;;5091057;28;20028;-78
2023/01/10 09:01:57;;;;;;;9.00;4.95;;;8.50;99.90;;;;;;5079525;28;20032;-77
2023/01/10 09:04:25;;;;;;;11.32;4.88;;;8.50;99.90;;;;;;5071613;28;20028;-77
2023/01/10 09:06:51;;;;;;;8.10;4.45;;;8.50;99.90;;;;;;5096534;28;20016;-77
2023/01/10 09:09:16;;;;;;;10.07;4.43;;;8.60;99.90;;;;;;5088649;28;20073;-77
2023/01/10 09:11:42;;;;;;;14.98;4.03;;;8.70;99.90;;;;;;5096124;28;20043;-78
2023/01/10 09:14:08;;;;;;;8.00;4.05;;;8.80;99.90;;;;;;5091964;28;20020;-78
2023/01/10 09:16:34;;;;;;;12.05;4.32;;;8.90;99.90;;;;;;5088330;28;20063;-78
2023/01/10 09:19:00;;;;;;;13.55;4.43;;;8.90;99.90;;;;;;5085546;28;20033;-78
2023/01/10 09:21:27;;;;;;;17.50;4.00;;;8.90;99.90;;;;;;5088347;28;20159;-78
2023/01/10 09:23:53;;;;;;;8.65;4.00;;;8.90;99.90;;;;;;5090802;28;20024;-78
2023/01/10 09:26:19;;;;;;;14.63;4.80;;;9.00;99.90;;;;;;5072745;28;20103;-78
2023/01/10 09:28:45;;;;;;;8.93;3.85;;;9.00;99.90;;;;;;5087224;28;20523;-78
2023/01/10 09:31:11;;;;;;;9.13;4.07;;;9.00;99.90;;;;;;5070200;28;20020;-77
2023/01/10 09:33:40;;;;;;;9.85;4.65;;;9.10;99.90;;;;;;5091020;28;20024;-78
2023/01/10 09:36:07;;;;;;;9.95;4.10;;;9.10;99.90;;;;;;5086484;28;20029;-77
2023/01/10 09:38:33;;;;;;;10.98;3.83;;;9.10;99.90;;;;;;5076510;28;20387;-77
2023/01/10 09:41:27;;;;;;;7.18;4.05;;;9.10;99.90;;;;;;5087495;28;20039;-77
2023/01/10 09:44:31;;;;;;;14.68;4.80;;;9.20;99.90;;;;;;5074024;28;20077;-77
2023/01/10 09:47:00;;;;;;;8.07;3.92;;;9.30;99.90;;;;;;5088437;28;20067;-77
2023/01/10 09:49:35;;;;;;;13.00;4.35;;;9.40;99.90;;;;;;5088986;28;20032;-77
2023/01/10 09:52:07;;;;;;;7.03;3.42;;;9.50;99.90;;;;;;5085269;28;20063;-77
2023/01/10 09:54:40;;;;;;;12.32;4.78;;;9.60;99.90;;;;;;5089950;28;20067;-79
2023/01/10 09:57:18;;;;;;;16.65;5.35;;;9.60;99.90;;;;;;5089876;28;20024;-77
2023/01/10 09:59:49;;;;;;;11.73;3.92;;;9.80;99.90;;;;;;5069396;28;20131;-77
2023/01/10 10:02:29;;;;;;;12.10;3.95;;;9.80;99.90;;;;;;5083090;28;20023;-77
2023/01/10 10:05:04;;;;;;;9.02;3.45;;;9.90;99.90;;;;;;5090085;28;20451;-78
2023/01/10 10:07:30;;;;;;;9.50;4.47;;;9.90;99.90;;;;;;5088202;28;20031;-78
2023/01/10 10:09:56;;;;;;;11.00;4.07;;;10.00;99.90;;;;;;5091082;28;20016;-78
2023/01/10 10:12:47;;;;;;;10.75;4.28;;;10.20;99.90;;;;;;5086703;28;20024;-79
2023/01/10 10:15:12;;;;;;;;;;;10.30;99.90;;;;;;5086832;28;20040;-78
2023/01/10 10:18:05;;;;;;;12.05;3.88;;;10.30;99.90;;;;;;5086902;28;19908;-79
2023/01/10 10:21:02;;;;;;;12.48;4.32;;;10.50;99.90;;;;;;5089707;28;20040;-79
2023/01/10 10:23:38;;;;;;;9.73;3.67;;;10.60;99.90;;;;;;5072691;28;20027;-80
2023/01/10 10:26:41;;;;;;;9.38;4.30;;;10.70;99.90;;;;;;5081273;28;20077;-79
2023/01/10 10:29:37;;;;;;;11.60;4.72;;;10.70;99.90;;;;;;5067562;28;20455;-80
2023/01/10 10:32:39;;;;;;;13.68;4.32;;;10.80;99.90;;;;;;5085474;28;20027;-80
2023/01/10 10:35:14;;;;;;;10.95;3.85;;;10.80;99.90;;;;;;5087069;28;20039;-79
2023/01/10 10:37:42;;;;;;;18.95;5.22;;;10.80;99.90;;;;;;5057266;28;20016;-78
2023/01/10 10:40:18;;;;;;;10.27;4.55;;;10.90;99.90;;;;;;5088415;28;20081;-78
2023/01/10 10:42:49;;;;;;;11.63;4.50;;;10.80;99.90;;;;;;5068302;28;20027;-79
2023/01/10 10:45:39;;;;;;;9.85;4.18;;;10.90;99.90;;;;;;5088990;28;20349;-79
2023/01/10 10:48:23;;;;;;;18.15;4.20;;;10.90;99.90;;;;;;5077094;28;20103;-79
2023/01/10 10:51:03;;;;;;;8.68;3.72;;;11.00;99.90;;;;;;5058609;28;20544;-79
2023/01/10 10:53:30;;;;;;;;;;;11.10;99.90;;;;;;5050348;28;20025;-79
2023/01/10 10:55:57;;;;;;;9.32;3.60;;;11.10;99.90;;;;;;5045411;28;19904;-78
2023/01/10 10:58:24;;;;;;;11.18;3.50;;;11.20;99.90;;;;;;5063129;28;20029;-79
2023/01/10 11:00:51;;;;;;;12.18;3.03;;;11.30;99.90;;;;;;5063513;28;20027;-78
2023/01/10 11:03:31;;;;;;;14.02;4.93;;;11.30;99.90;;;;;;5064923;28;20072;-79
2023/01/10 11:05:59;;;;;;;12.98;4.43;;;11.30;99.90;;;;;;5068464;28;20480;-78
2023/01/10 11:08:27;;;;;;;10.20;3.67;;;11.40;99.90;;;;;;5062591;28;20029;-79
2023/01/10 11:10:56;;;;;;;5.15;2.78;;;11.40;99.90;;;;;;5049239;28;20032;-80
2023/01/10 11:13:40;;;;;;;10.80;4.43;;;11.50;99.90;;;;;;5051173;28;20107;-77
2023/01/10 11:16:06;;;;;;;13.98;3.25;;;11.50;99.90;;;;;;5056081;28;20025;-78
2023/01/10 11:18:33;;;;;;;9.15;3.22;;;11.60;99.90;;;;;;5066098;28;20032;-77
2023/01/10 11:21:07;;;;;;;7.13;3.97;;;11.60;99.90;;;;;;5064750;28;20025;-77
2023/01/10 11:23:39;;;;;;;16.50;3.88;;;11.60;99.90;;;;;;5052683;28;20028;-78
2023/01/10 11:26:09;;;;;;;12.20;3.45;;;11.70;99.90;;;;;;5053192;28;20057;-77
2023/01/10 11:28:36;;;;;;;11.43;3.13;;;11.80;99.90;;;;;;5070493;28;20024;-78
2023/01/10 11:31:02;;;;;;;12.73;3.35;;;11.80;99.90;;;;;;5068325;28;20033;-77
2023/01/10 11:33:44;;;;;;;20.52;4.88;;;11.90;99.90;;;;;;5069887;28;20032;-78
2023/01/10 11:36:12;;;;;;;9.68;3.03;;;11.90;99.90;;;;;;5067814;28;20099;-77
2023/01/10 11:38:39;;;;;;;11.23;3.85;;;12.00;99.90;;;;;;5052296;28;20028;-77
2023/01/10 11:41:33;;;;;;;16.35;3.50;;;12.10;99.90;;;;;;5055964;28;20108;-72
2023/01/10 11:44:16;;;;;;;9.23;3.60;;;12.10;99.90;;;;;;5072281;28;20028;-72
2023/01/10 11:46:48;;;;;;;10.55;3.08;;;12.10;99.90;;;;;;5074101;28;20021;-72
2023/01/10 11:49:27;;;;;;;10.13;3.33;;;12.10;99.90;;;;;;5049017;28;20607;-73
2023/01/10 11:51:58;;;;;;;12.43;3.75;;;12.20;99.90;;;;;;5051637;28;20136;-73
2023/01/10 11:54:26;;;;;;;11.30;3.47;;;12.20;99.90;;;;;;5050279;28;20393;-73
2023/01/10 11:57:17;;;;;;;9.48;3.40;;;12.20;99.90;;;;;;5046800;28;20772;-72
2023/01/10 11:59:53;;;;;;;9.18;2.83;;;12.40;99.90;;;;;;5049417;28;20028;-72
2023/01/10 12:02:34;;;;;;;18.55;3.97;;;12.50;99.90;;;;;;5048637;28;20091;-73
2023/01/10 12:05:04;;;;;;;10.18;3.50;;;12.50;99.90;;;;;;5049267;28;20071;-72
2023/01/10 12:08:13;;;;;;;12.75;3.63;;;12.60;99.90;;;;;;5042744;28;20033;-72
2023/01/10 12:13:15;;;;;;;11.45;3.35;;;12.70;99.90;;;;;;5073304;28;20113;-77
2023/01/10 12:15:41;;;;;;;10.65;3.30;;;12.70;99.90;;;;;;5093674;28;20398;-73
2023/01/10 12:18:07;;;;;;;12.88;3.25;;;12.70;99.90;;;;;;5086657;28;20107;-79
2023/01/10 12:20:43;;;;;;;10.10;3.33;;;12.60;99.90;;;;;;5074100;28;20097;-75
2023/01/10 12:23:16;;;;;;;13.30;3.38;;;12.60;99.90;;;;;;5096102;28;20031;-74
2023/01/10 12:25:44;;;;;;;10.85;3.58;;;12.60;99.90;;;;;;5100094;28;20539;-74
2023/01/10 12:28:19;;;;;;;11.05;3.58;;;12.50;99.90;;;;;;5095153;28;20035;-85
2023/01/10 12:30:49;;;;;;;10.05;3.22;;;12.60;99.90;;;;;;5092938;28;20098;-79
2023/01/10 12:33:20;;;;;;;10.35;3.17;;;12.60;99.90;;;;;;5090135;28;20024;-77
2023/01/10 12:36:01;;;;;;;;;;;12.60;99.90;;;;;;5076388;28;20020;-78
2023/01/10 12:39:02;;;;;;;8.15;3.38;;;12.60;99.90;;;;;;5076335;28;19908;-77
2023/01/10 12:45:11;;;;;;;8.35;3.22;;;12.60;99.90;;;;;;5096913;28;20034;-78
2023/01/10 12:47:59;;;;;;;15.55;4.25;;;12.60;99.90;;;;;;5075950;28;20116;-78
2023/01/10 12:50:42;;;;;;;9.60;2.92;;;12.60;99.90;;;;;;5095601;28;20099;-78
2023/01/10 12:53:08;;;;;;;16.00;3.70;;;12.70;99.90;;;;;;5099678;28;20103;-78
2023/01/10 12:55:44;;;;;;;9.45;3.70;;;12.70;99.90;;;;;;5093714;28;20085;-78
2023/01/10 12:58:42;;;;;;;9.20;3.83;;;12.80;99.90;;;;;;5070870;28;20025;-78
2023/01/10 13:01:18;;;;;;;10.15;2.90;;;12.80;99.90;;;;;;5061658;28;20063;-78
2023/01/10 13:03:48;;;;;;;12.10;3.70;;;12.70;99.90;;;;;;5091805;28;20036;-78
2023/01/10 13:06:32;;;;;;;11.23;2.90;;;12.60;99.90;;;;;;5097303;28;20077;-78
2023/01/10 13:09:02;;;;;;;12.80;3.55;;;12.60;99.90;;;;;;5091076;28;20070;-78
2023/01/10 13:11:34;;;;;;;8.02;3.65;;;12.60;99.90;;;;;;5101218;28;20020;-78
2023/01/10 13:14:03;;;;;;;9.77;3.05;;;12.60;99.90;;;;;;5095874;28;20027;-78
2023/01/10 13:16:49;;;;;;;12.57;3.65;;;12.60;99.90;;;;;;5081428;28;20053;-78
2023/01/10 13:19:18;;;;;;;10.85;3.28;;;12.60;99.90;;;;;;5091622;28;20479;-77
2023/01/10 13:21:45;;;;;;;8.35;3.13;;;12.60;99.90;;;;;;5096727;28;20046;-78